Texas City — WDD4983 — position and weather

sailwx.info

Track history (hours):
 
Tides and Currents Weather Stations Pressure Air Temp Water Temp Dewpoint Dewpoint Depression Visibility Wind Speed Wind Dir Waves Ship Positions

Texas City

Owner: Marathon Petroleum Company LP, Findlay, OH. More information available from US FCC via Universal Licensing System and Coast Guard Vessel Documentation Center.

Last reported at 2017-Nov-13 02:00 UTC. Time now 2017-Nov-24 16:26 UTC.
Position N 29°44' W 095°13'.
Warning: this ship's position is 11 days out of date.

Length 224 m; draft 2.9 m.

Type: . MMSI: 367135470.

Date/timePositionNaut miles runAvg speedWind from/ knotsBaromVisibWave heightAir tempDewpointWater temp
2017-Nov-13 02:00N 29°44' W 095°13'0 0.0
2017-Nov-13 01:24N 29°44' W 095°13'0 0.0
2017-Nov-13 00:59N 29°44' W 095°13'0 0.0
2017-Nov-13 00:30N 29°44' W 095°13'0 0.0
2017-Nov-12 21:36N 29°44' W 095°13'0 0.0
2017-Nov-12 20:20N 29°44' W 095°13'0 0.0
2017-Nov-12 19:54N 29°44' W 095°13'0 0.0
2017-Nov-12 19:29N 29°44' W 095°13'0 0.0
2017-Nov-12 18:50N 29°44' W 095°13'0 0.0
2017-Nov-12 18:29N 29°44' W 095°13'0 0.0
2017-Nov-12 18:00N 29°44' W 095°13'0 0.0
2017-Nov-12 17:18N 29°44' W 095°13'0 0.0
2017-Nov-12 16:52N 29°44' W 095°13'0 0.0
2017-Nov-12 16:28N 29°44' W 095°13'0 0.0
2017-Nov-12 15:59N 29°44' W 095°13'0 0.0
2017-Nov-12 15:26N 29°44' W 095°13'0 0.0
2017-Nov-12 15:00N 29°44' W 095°13'0 0.0
2017-Nov-12 14:28N 29°44' W 095°13'0 0.0
2017-Nov-12 13:56N 29°44' W 095°13'0 0.0
2017-Nov-12 13:30N 29°44' W 095°13'0 0.0
2017-Nov-12 12:54N 29°44' W 095°13'0 0.0
2017-Nov-12 12:27N 29°44' W 095°13'0 0.0
2017-Nov-12 11:15N 29°44' W 095°13'0 0.0
2017-Nov-12 11:00N 29°44' W 095°13'0 0.5
2017-Nov-12 10:30N 29°43' W 095°13'3 4.3
2017-Nov-12 09:51N 29°45' W 095°10'2 5.0
2017-Nov-12 09:30N 29°44' W 095°08'3 5.3
2017-Nov-12 08:59N 29°45' W 095°06'2 4.4
2017-Nov-12 08:28N 29°47' W 095°04'0 0.3
2017-Nov-12 07:01N 29°47' W 095°04'1 5.9
2017-Nov-12 06:49N 29°46' W 095°05'  
2017-Nov-06 20:31N 29°46' W 095°05'0 0.0
2017-Nov-05 00:38N 29°46' W 095°05'2 1.6
2017-Nov-04 23:21N 29°47' W 095°04'0 0.0
2017-Nov-04 19:36N 29°47' W 095°04'0 0.0
2017-Nov-04 19:17N 29°47' W 095°04'0 0.0
2017-Nov-04 18:56N 29°47' W 095°04'0 0.0
2017-Nov-04 18:27N 29°47' W 095°04'0 0.0
2017-Nov-04 17:55N 29°47' W 095°04'0 0.0
2017-Nov-04 17:30N 29°47' W 095°04'2 0.2
2017-Nov-04 05:43N 29°46' W 095°06'1 4.2
2017-Nov-04 05:29N 29°46' W 095°05'0 0.1
2017-Nov-04 04:25N 29°46' W 095°05'2 4.1
2017-Nov-04 03:56N 29°44' W 095°03'2 5.1
2017-Nov-04 03:28N 29°43' W 095°01'2 5.1
2017-Nov-04 03:00N 29°41' W 094°59'3 6.7
2017-Nov-04 02:30N 29°38' W 094°58'3 6.6
2017-Nov-04 02:00N 29°35' W 094°56'3 7.0
2017-Nov-04 01:30N 29°32' W 094°54'  
Track history (hours):
 
Tides and Currents Weather Stations Pressure Air Temp Water Temp Dewpoint Dewpoint Depression Visibility Wind Speed Wind Dir Waves Ship Positions

Texas City

Owner: Marathon Petroleum Company LP, Findlay, OH. More information available from US FCC via Universal Licensing System and Coast Guard Vessel Documentation Center.

Last reported at 2017-Nov-13 02:00 UTC. Time now 2017-Nov-24 16:26 UTC.
Position N 29°44' W 095°13'.
Warning: this ship's position is 11 days out of date.

Length 224 m; draft 2.9 m.

Type: . MMSI: 367135470.

Date/timePositionNaut miles runAvg speedWind from/ knotsBaromVisibWave heightAir tempDewpointWater temp
2017-Nov-13 02:00N 29°44' W 095°13'0 0.0
2017-Nov-13 01:24N 29°44' W 095°13'0 0.0
2017-Nov-13 00:59N 29°44' W 095°13'0 0.0
2017-Nov-13 00:30N 29°44' W 095°13'0 0.0
2017-Nov-12 21:36N 29°44' W 095°13'0 0.0
2017-Nov-12 20:20N 29°44' W 095°13'0 0.0
2017-Nov-12 19:54N 29°44' W 095°13'0 0.0
2017-Nov-12 19:29N 29°44' W 095°13'0 0.0
2017-Nov-12 18:50N 29°44' W 095°13'0 0.0
2017-Nov-12 18:29N 29°44' W 095°13'0 0.0
2017-Nov-12 18:00N 29°44' W 095°13'0 0.0
2017-Nov-12 17:18N 29°44' W 095°13'0 0.0
2017-Nov-12 16:52N 29°44' W 095°13'0 0.0
2017-Nov-12 16:28N 29°44' W 095°13'0 0.0
2017-Nov-12 15:59N 29°44' W 095°13'0 0.0
2017-Nov-12 15:26N 29°44' W 095°13'0 0.0
2017-Nov-12 15:00N 29°44' W 095°13'0 0.0
2017-Nov-12 14:28N 29°44' W 095°13'0 0.0
2017-Nov-12 13:56N 29°44' W 095°13'0 0.0
2017-Nov-12 13:30N 29°44' W 095°13'0 0.0
2017-Nov-12 12:54N 29°44' W 095°13'0 0.0
2017-Nov-12 12:27N 29°44' W 095°13'0 0.0
2017-Nov-12 11:15N 29°44' W 095°13'0 0.0
2017-Nov-12 11:00N 29°44' W 095°13'0 0.5
2017-Nov-12 10:30N 29°43' W 095°13'3 4.3
2017-Nov-12 09:51N 29°45' W 095°10'2 5.0
2017-Nov-12 09:30N 29°44' W 095°08'3 5.3
2017-Nov-12 08:59N 29°45' W 095°06'2 4.4
2017-Nov-12 08:28N 29°47' W 095°04'0 0.3
2017-Nov-12 07:01N 29°47' W 095°04'1 5.9
2017-Nov-12 06:49N 29°46' W 095°05'  
2017-Nov-06 20:31N 29°46' W 095°05'0 0.0
2017-Nov-05 00:38N 29°46' W 095°05'2 1.6
2017-Nov-04 23:21N 29°47' W 095°04'0 0.0
2017-Nov-04 19:36N 29°47' W 095°04'0 0.0
2017-Nov-04 19:17N 29°47' W 095°04'0 0.0
2017-Nov-04 18:56N 29°47' W 095°04'0 0.0
2017-Nov-04 18:27N 29°47' W 095°04'0 0.0
2017-Nov-04 17:55N 29°47' W 095°04'0 0.0
2017-Nov-04 17:30N 29°47' W 095°04'2 0.2
2017-Nov-04 05:43N 29°46' W 095°06'1 4.2
2017-Nov-04 05:29N 29°46' W 095°05'0 0.1
2017-Nov-04 04:25N 29°46' W 095°05'2 4.1
2017-Nov-04 03:56N 29°44' W 095°03'2 5.1
2017-Nov-04 03:28N 29°43' W 095°01'2 5.1
2017-Nov-04 03:00N 29°41' W 094°59'3 6.7
2017-Nov-04 02:30N 29°38' W 094°58'3 6.6
2017-Nov-04 02:00N 29°35' W 094°56'3 7.0
2017-Nov-04 01:30N 29°32' W 094°54'  

Dump ship's entire track history